Tiempo atmosférico en la estación meteorológica de Madrid, Madrid (667 m.)



Fecha
DESCASC
Temp. máxima en grados centígrados (hora)
DESCASC
Temp. mínima en grados centígrados (hora)
DESCASC
Temp. media en grados centígrados
DESCASC
Racha de viento máxima en m/sg (hora)
DESCASC
Velocidad máxima media en intervalos de 10 minutos(hora)
DESCASC
Precipitaciones diarias en mm
DESCASC
Precipitaciones de 00:00 a 06:00 en mm
DESCASC
Precipitaciones de 06:00 a 12:00 en mm
DESCASC
Precipitaciones de 12:00 a 18:00 en mm
DESCASC
Precipitaciones de 18:00 a 24:00 en mm
DESCASC

Gráficas

Temp. máximas Temp. mínimas Temp. medias Precipitaciones Rachas de viento máximas Velocidades máximas media en intervalos de 10 minutos

Datos horarios

Fecha y hora oficial Temperatura (ºC) Velocidad del viento (km/h) Dirección del viento Racha (km/h) Dirección de racha Precipitación (mm) Presión (hPa) Tendencia (hPa) Humedad (%)
2019-08-20 23:00:00 23.9 13 Nordeste 34 Nordeste 0 941.3 1.1 44
2019-08-20 22:00:00 25.1 13 Nordeste 34 Nordeste 0 941.3 1.1 42
2019-08-20 21:00:00 26.1 13 Nordeste 32 Nordeste 0 940.6 0.4 38
2019-08-20 20:00:00 27.9 11 Nordeste 31 Este 0 940.2 -0.1 33
2019-08-20 19:00:00 28.6 11 Nordeste 23 Nordeste 0 940.2 -0.6 32
2019-08-20 18:00:00 29.3 11 Nordeste 27 Nordeste 0 940.2 -0.8 32
2019-08-20 17:00:00 29.3 9 Este 28 Nordeste 0 940.3 -0.9 35
2019-08-20 16:00:00 29.7 8 Norte 29 Nordeste 0 940.8 -0.6 38
2019-08-20 15:00:00 28.9 13 Este 34 Nordeste 0 941 0 41
2019-08-20 14:00:00 27.6 15 Nordeste 32 Nordeste 0 941.2 1 44
2019-08-20 13:00:00 26.7 14 Nordeste 32 Este 0 941.4 1.6 47
2019-08-20 12:00:00 25.2 14 Nordeste 29 Nordeste 0.1 941 1.7 51
2019-08-20 11:00:00 23 14 Nordeste 27 Nordeste 0 940.2 1.3 55
2019-08-20 10:00:00 21.5 10 Nordeste 24 Nordeste 0 939.8 1.5 58
2019-08-20 09:00:00 20.5 9 Nordeste 26 Nordeste 0 939.3 1.4 58
2019-08-20 08:00:00 20.4 12 Nordeste 24 Nordeste 0 938.9 1.8 58
2019-08-20 07:00:00 20.2 10 Nordeste 27 Nordeste 0 938.3 0.7 58
2019-08-20 06:00:00 20.5 9 Nordeste 26 Nordeste 0 937.9 -0.2 57
2019-08-20 05:00:00 20.5 8 Nordeste 31 Nordeste 0 937.1 -1.4 59
2019-08-20 04:00:00 20.2 10 Nordeste 32 Nordeste 0.2 937.6 -0.4 61
2019-08-20 03:00:00 20.8 12 Nordeste 34 Nordeste 0.2 938.1 0.4 53
2019-08-20 02:00:00 22.7 17 Nordeste 35 Nordeste 0 938.5 0.9 44
2019-08-20 01:00:00 23.7 12 Este 39 Nordeste 0 938 0.8 42
2019-08-20 00:00:00 26.3 7 Norte 28 Norte 0 937.7 0.9 33
2019-08-19 23:00:00 27.2 4 Noroeste 12 Oeste 0 937.6 1.2 31
2019-08-19 22:00:00 27.6 5 Noroeste 12 Noroeste 0 937.2 0.5 31
2019-08-19 21:00:00 28.3 6 Noroeste 25 Oeste 0 936.8 0 29
2019-08-19 20:00:00 29.3 10 Oeste 30 Oeste 0 936.4 -0.8 32
2019-08-19 19:00:00 29.6 12 Oeste 28 Oeste 0 936.7 -0.9 32
2019-08-19 18:00:00 30.4 14 Oeste 30 Oeste 0 936.8 -1.3 32
2019-08-19 17:00:00 29.6 11 Oeste 33 Oeste 0 937.2 -0.9 33
2019-08-19 16:00:00 31.6 12 Sudoeste 34 Sudoeste 0 937.6 -0.7 30
2019-08-19 15:00:00 32.5 11 Sudoeste 33 Sudoeste 0 938.1 -0.2 30
2019-08-19 14:00:00 30.7 12 Sudoeste 29 Sudoeste 0 938.1 -0.2 32
2019-08-19 13:00:00 30.1 8 Oeste 21 Sudoeste 0 938.3 0.4 35
2019-08-19 12:00:00 27.7 3 Sudoeste 16 Sudoeste 0 938.3 0.3 40
2019-08-19 11:00:00 25.5 3 Sur 12 Oeste 0 938.3 0.4 42
2019-08-19 10:00:00 23.7 0 Calma 7 Este 0 937.9 0.5 45
2019-08-19 09:00:00 22.7 3 Sudeste 11 Este 0 938 0.7 49
2019-08-19 08:00:00 21.1 0 Calma 8 Este 0 937.9 0.6 46
2019-08-19 07:00:00 21.6 3 Este 8 Este 0 937.4 0.3 44
2019-08-19 06:00:00 23 5 Este 11 Este 0 937.3 -0.1 40
2019-08-19 05:00:00 23.6 6 Este 12 Este 0 937.3 -0.2 37
2019-08-19 04:00:00 23.3 0 Calma 8 Noroeste 0 937.1 -0.3 48
2019-08-19 03:00:00 23.7 3 Norte 9 Noroeste 0 937.4 0.3 45
2019-08-19 02:00:00 24.1 5 Noroeste 16 Noroeste 0 937.5 0.5 42
2019-08-19 01:00:00 24.8 7 Oeste 15 Oeste 0 937.4 1 38
2019-08-19 00:00:00 25.9 7 Oeste 17 Oeste 0 937.1 1.2 33
2019-08-18 23:00:00 26.7 8 Oeste 17 Oeste 0 937 1.4 29
2019-08-18 22:00:00 28.3 11 Oeste 31 Oeste 0 936.4 0.9 25
2019-08-18 21:00:00 30.1 14 Oeste 35 Oeste 0 935.9 0.2 22
2019-08-18 20:00:00 31.8 14 Sudoeste 36 Sudoeste 0 935.6 -0.4 19
2019-08-18 19:00:00 32.9 16 Sudoeste 41 Oeste 0 935.5 -0.8 19
2019-08-18 18:00:00 32.3 17 Sudoeste 45 Sudoeste 0 935.7 -0.9 20
2019-08-18 17:00:00 30.9 15 Sudoeste 40 Sudoeste 0 936 -1.2 22
2019-08-18 16:00:00 34 13 Sudoeste 44 Sudoeste 0 936.3 -1.1 18
2019-08-18 15:00:00 34.1 14 Sudoeste 39 Sudoeste 0 936.6 -1.2 19
2019-08-18 14:00:00 32.5 15 Sudoeste 33 Oeste 0 937.2 -0.2 22
2019-08-18 13:00:00 32.4 12 Sudoeste 32 Sudoeste 0 937.4 0.5 25
2019-08-18 12:00:00 30.1 12 Sudoeste 28 Sudoeste 0 937.8 1.3 28
2019-08-18 11:00:00 26.9 5 Sudoeste 13 Sudoeste 0 937.4 1.3 32
2019-08-18 10:00:00 23.4 0 Calma 8 Sur 0 936.9 1.4 33
2019-08-18 09:00:00 21.1 2 Sur 9 Sur 0 936.5 1.1 35
2019-08-18 08:00:00 20.1 3 Sur 8 Sur 0 936.1 0.8 34
2019-08-18 07:00:00 20.8 3 Oeste 14 Noroeste 0 935.5 -0.4 32
2019-08-18 06:00:00 21 8 Oeste 13 Sudoeste 0 935.4 -0.5 35
2019-08-18 05:00:00 22 2 Sudoeste 5 Sur 0 935.3 -1 34
2019-08-18 04:00:00 22.5 3 Oeste 11 Sudoeste 0 935.9 -0.3 34
2019-08-18 03:00:00 23.8 0 Calma 3 Sudoeste 0 935.9 -0.7 29
2019-08-18 02:00:00 25 0 Calma 10 Oeste 0 936.3 -0.2 28
2019-08-18 01:00:00 26 5 Noroeste 13 Noroeste 0 936.2 -0.2 27
2019-08-18 00:00:00 27.2 7 Noroeste 19 Noroeste 0 936.6 0.5 26
2019-08-17 23:00:00 28.4 8 Noroeste 19 Oeste 0 936.5 0.3 25
2019-08-17 22:00:00 29.7 8 Oeste 22 Oeste 0 936.4 -0.2 25
2019-08-17 21:00:00 31.9 9 Oeste 27 Oeste 0 936.1 -0.9 23
2019-08-17 20:00:00 34 8 Oeste 27 Sudoeste 0 936.2 -1.2 22
2019-08-17 19:00:00 35.4 12 Sudoeste 32 Oeste 0 936.6 -1.4 22
2019-08-17 18:00:00 35.6 11 Oeste 33 Sudoeste 0 937 -1.7 22
2019-08-17 17:00:00 35.8 14 Oeste 32 Sudoeste 0 937.4 -2 22
2019-08-17 16:00:00 36.9 11 Oeste 35 Sudoeste 0 938 -1.9 21
2019-08-17 15:00:00 35.9 12 Sudoeste 33 Sudoeste 0 938.7 -1.4 23
2019-08-17 14:00:00 34.7 8 Sudoeste 20 Sur 0 939.4 -0.6 25
2019-08-17 13:00:00 32.7 5 Sudoeste 13 Oeste 0 939.9 -0.2 27
2019-08-17 12:00:00 30.2 0 Calma 12 Sur 0 940.1 0.2 32
2019-08-17 11:00:00 26.7 4 Sur 11 Sudeste 0 940 0.7 35
2019-08-17 10:00:00 25 7 Este 13 Este 0 940.1 1 36
2019-08-17 09:00:00 23.3 5 Este 13 Nordeste 0 939.9 1.1 38
2019-08-17 08:00:00 21.8 2 Este 13 Nordeste 0 939.3 0.4 41
2019-08-17 07:00:00 21.9 0 Calma 7 Este 0 939.1 0.4 40
2019-08-17 06:00:00 22.7 2 Este 6 Este 0 938.8 0.2 39
2019-08-17 05:00:00 24 3 Nordeste 9 Este 0 938.9 -0.1 37
2019-08-17 04:00:00 23.3 5 Noroeste 8 Noroeste 0 938.7 -0.2 37
2019-08-17 03:00:00 24.6 0 Calma 6 Noroeste 0 938.6 0 35
2019-08-17 02:00:00 25.2 0 Calma 6 Este 0 939 0.3 34
2019-08-17 01:00:00 26.3 4 Sur 9 Sudeste 0 938.9 0.6 34
2019-08-17 00:00:00 27.1 6 Noroeste 10 Noroeste 0 938.6 0.6 32
2019-08-16 23:00:00 28.4 6 Noroeste 14 Norte 0 938.7 0.8 29
2019-08-16 22:00:00 29.8 8 Oeste 16 Sudoeste 0 938.3 0.2 28
2019-08-16 21:00:00 31.6 7 Sudoeste 25 Sudoeste 0 938 -0.4 25
2019-08-16 20:00:00 33.3 8 Oeste 24 Oeste 0 937.9 -1.3 25
2019-08-16 19:00:00 34.3 7 Oeste 26 Sudoeste 0 938.1 -1.5 24
2019-08-16 18:00:00 34.8 7 Sudoeste 27 Sudoeste 0 938.4 -1.9 24
2019-08-16 17:00:00 35.1 6 Sudoeste 23 Oeste 0 939.2 -1.6 25
2019-08-16 16:00:00 35.4 8 Sur 23 Sudoeste 0 939.6 -1.5 26
2019-08-16 15:00:00 34.4 7 Sudoeste 19 Sudoeste 0 940.3 -1.2 29
2019-08-16 14:00:00 32.6 2 Sudoeste 15 Sudeste 0 940.8 -0.9 32
2019-08-16 13:00:00 30.2 4 Sur 12 Sur 0 941.1 0.4 35
2019-08-16 12:00:00 27.9 4 Sudeste 13 Sudeste 0 941.5 0.1 39
2019-08-16 11:00:00 26.1 5 Sudeste 13 Sudeste 0 941.7 0.7 42
2019-08-16 10:00:00 23.9 5 Este 14 Este 0 940.7 0.2 44
2019-08-16 09:00:00 22.4 9 Nordeste 16 Nordeste 0 941.4 1 44
2019-08-16 08:00:00 21.7 9 Nordeste 20 Nordeste 0 941 1.3 44
2019-08-16 07:00:00 22 12 Nordeste 21 Nordeste 0 940.5 0 43
2019-08-16 06:00:00 22.3 12 Nordeste 23 Nordeste 0 940.4 -0.6 41
2019-08-16 05:00:00 22.6 11 Nordeste 22 Nordeste 0 939.7 -1.4 41
2019-08-16 04:00:00 23.1 10 Nordeste 27 Nordeste 0 940.5 -0.6 39
2019-08-16 03:00:00 23.8 15 Nordeste 33 Nordeste 0 941 0.2 39
2019-08-16 02:00:00 24.7 14 Nordeste 34 Nordeste 0 941.1 0.8 37
2019-08-16 01:00:00 26 16 Nordeste 37 Nordeste 0 941.1 1.2 35
2019-08-16 00:00:00 28.3 13 Nordeste 31 Nordeste 0 940.8 1.3 29
2019-08-15 23:00:00 28.5 7 Nordeste 19 Nordeste 0 940.3 1.1 29
2019-08-15 22:00:00 29.1 5 Norte 15 Noroeste 0 939.9 0.5 26
2019-08-15 21:00:00 31.2 7 Noroeste 15 Noroeste 0 939.5 -0.1 25
2019-08-15 20:00:00 32.6 6 Oeste 17 Oeste 0 939.2 -0.8 27
2019-08-15 19:00:00 33.4 4 Sur 21 Sudoeste 0 939.4 -1.4 27
2019-08-15 18:00:00 34.1 7 Sudoeste 20 Sudoeste 0 939.6 -1.6 27
2019-08-15 17:00:00 33.5 2 Sudeste 18 Oeste 0 940 -1.8 28
2019-08-15 16:00:00 34.7 3 Sur 21 Sur 0 940.8 -1.4 25
2019-08-15 15:00:00 34.2 4 Este 15 Sudoeste 0 941.2 -1.3 25
2019-08-15 14:00:00 33.5 4 Sudeste 13 Sur 0 941.8 -0.9 25
2019-08-15 13:00:00 32 6 Sur 14 Este 0 942.2 0.1 26
2019-08-15 12:00:00 29.1 4 Este 11 Este 0 942.5 0.6 28
2019-08-15 11:00:00 26.2 4 Nordeste 13 Este 0 942.7 0.9 32
2019-08-15 10:00:00 23.4 5 Este 17 Sudeste 0 942.1 1.1 35
2019-08-15 09:00:00 21.6 9 Nordeste 16 Nordeste 0 941.9 1.2 36
2019-08-15 08:00:00 21 4 Nordeste 16 Nordeste 0 941.8 1.1 35
2019-08-15 07:00:00 20.8 5 Nordeste 18 Nordeste 0 941 0.2 35
2019-08-15 06:00:00 20.3 6 Nordeste 11 Nordeste 0 940.7 -0.4 35
2019-08-15 05:00:00 21.1 3 Nordeste 11 Nordeste 0 940.7 -0.3 35
2019-08-15 04:00:00 21 0 Calma 12 Nordeste 0 940.8 -0.6 35
2019-08-15 03:00:00 22.9 4 Nordeste 17 Nordeste 0 941.1 -0.3 32
2019-08-15 02:00:00 22.5 6 Nordeste 15 Nordeste 0 941 -0.5 32
2019-08-15 01:00:00 23.4 4 Norte 8 Norte 0 941.4 0.4 32
2019-08-15 00:00:00 24.1 4 Oeste 6 Oeste 0 941.4 0.8 30
2019-08-14 23:00:00 25.6 0 Calma 6 Oeste 0 941.5 1 29
2019-08-14 22:00:00 27.2 0 Calma 12 Sur 0 941 0.5 26
2019-08-14 21:00:00 28.6 4 Sudoeste 15 Sudoeste 0 940.6 -0.2 25
2019-08-14 20:00:00 30.7 6 Sudoeste 19 Sudoeste 0 940.5 -1 24
2019-08-14 19:00:00 31.8 7 Oeste 15 Oeste 0 940.5 -1.3 24
2019-08-14 18:00:00 31.9 3 Sudoeste 15 Sur 0 940.8 -1.6 24
2019-08-14 17:00:00 32.3 5 Sudoeste 15 Norte 0 941.5 -1.5 24
2019-08-14 16:00:00 32.1 5 Sudoeste 18 Sudoeste 0 941.8 -1.7 25
2019-08-14 15:00:00 31.6 0 Calma 14 Sudoeste 0 942.4 -0.4 25
2019-08-14 14:00:00 30 4 Sudoeste 17 Sudoeste 0 943 -0.4 28
2019-08-14 13:00:00 28.4 4 Sudeste 12 Sudeste 0 943.5 0.3 32
2019-08-14 12:00:00 25.8 3 Este 10 Sudeste 0 942.8 -0.4 37
2019-08-14 11:00:00 22.6 4 Sur 10 Sudeste 0 943.4 0.8 41
2019-08-14 10:00:00 20.7 5 Este 15 Este 0 943.2 0.9 37
2019-08-14 09:00:00 18.8 5 Nordeste 18 Nordeste 0 943.2 0.9 38
2019-08-14 08:00:00 17.8 6 Nordeste 19 Nordeste 0 942.6 0.3 40
2019-08-14 07:00:00 17.8 5 Nordeste 16 Nordeste 0 942.3 0 41
2019-08-14 06:00:00 18.7 4 Nordeste 18 Nordeste 0 942.3 -0.1 38
2019-08-14 05:00:00 19.6 8 Nordeste 26 Nordeste 0 942.3 -0.1 35
2019-08-14 04:00:00 20.3 10 Nordeste 26 Nordeste 0 942.3 0.3 32
2019-08-14 03:00:00 21.4 12 Nordeste 27 Nordeste 0 942.4 1.2 29
2019-08-14 02:00:00 22.2 11 Nordeste 25 Nordeste 0 942.4 0.4 27
2019-08-14 01:00:00 23 9 Nordeste 21 Nordeste 0 942 0.9 27
2019-08-14 00:00:00 23.7 9 Nordeste 23 Nordeste 0 941.2 0.7 26
2019-08-13 23:00:00 24.7 10 Nordeste 23 Nordeste 0 942 1.6 26
2019-08-13 22:00:00 24.9 9 Nordeste 24 Nordeste 0 941.1 0.8 26
2019-08-13 21:00:00 26.1 5 Noroeste 17 Norte 0 940.5 0.1 25
2019-08-13 20:00:00 27.6 6 Noroeste 20 Oeste 0 940.4 -0.7 25
2019-08-13 19:00:00 28.4 5 Oeste 22 Oeste 0 940.3 -1.2 26
2019-08-13 18:00:00 28.2 8 Oeste 17 Oeste 0 940.4 -1.7 29
2019-08-13 17:00:00 28.5 6 Sur 19 Sudoeste 0 941.1 -1.4 29
2019-08-13 16:00:00 28.1 0 Calma 20 Oeste 0 941.5 -0.8 29
2019-08-13 15:00:00 27.9 5 Oeste 14 Oeste 0 942.1 -1 31
2019-08-13 14:00:00 26 4 Este 13 Norte 0 942.5 -0.2 35
2019-08-13 13:00:00 24.8 3 Norte 16 Nordeste 0 942.3 -0.5 39
2019-08-13 12:00:00 23.2 5 Este 20 Norte 0 943.1 0.6 38
2019-08-13 11:00:00 20.1 11 Este 22 Nordeste 0 942.7 0.8 40
2019-08-13 10:00:00 17.6 12 Nordeste 26 Nordeste 0 942.8 0.8 43
2019-08-13 09:00:00 15.8 13 Nordeste 33 Nordeste 0 942.5 0.6 45
2019-08-13 08:00:00 15.3 13 Nordeste 36 Nordeste 0 941.9 -0.1 46
2019-08-13 07:00:00 15.6 15 Nordeste 33 Nordeste 0 942 -0.2 46
2019-08-13 06:00:00 16 18 Nordeste 35 Norte 0 941.9 -0.6 45
2019-08-13 05:00:00 16.6 15 Nordeste 32 Nordeste 0 942 -0.7 43
2019-08-13 04:00:00 17.4 13 Nordeste 34 Nordeste 0 942.2 0.1 42
2019-08-13 03:00:00 17.7 17 Nordeste 41 Nordeste 0 942.5 0.8 41
2019-08-13 02:00:00 18.7 12 Nordeste 39 Nordeste 0 942.7 1.6 40
2019-08-13 01:00:00 19.5 14 Nordeste 42 Nordeste 0 942.1 0.6 36
2019-08-13 00:00:00 21.1 21 Nordeste 41 Nordeste 0 941.7 1.2 30
2019-08-12 23:00:00 22.5 14 Nordeste 32 Norte 0 941.1 1.1 27
2019-08-12 22:00:00 23.7 14 Nordeste 32 Nordeste 0 941.5 1.6 25
2019-08-12 21:00:00 24.9 11 Nordeste 20 Nordeste 0 940.5 0.2 25
2019-08-12 20:00:00 25.3 6 Nordeste 22 Nordeste 0 940 -0.6 25
2019-08-12 19:00:00 26.1 8 Nordeste 28 Nordeste 0 939.9 -1.3 24
2019-08-12 18:00:00 26.7 11 Este 24 Sudeste 0 940.3 -1.2 23
2019-08-12 17:00:00 27.1 6 Nordeste 28 Norte 0 940.6 -1.4 23
2019-08-12 16:00:00 26.8 4 Este 23 Norte 0 941.2 -0.8 25
2019-08-12 15:00:00 26.5 12 Nordeste 26 Este 0 941.5 -0.7 24
2019-08-12 14:00:00 25 9 Nordeste 35 Nordeste 0 942 0.1 26
2019-08-12 13:00:00 24.1 10 Nordeste 28 Nordeste 0 942 0.4 30
2019-08-12 12:00:00 23 9 Nordeste 27 Nordeste 0 942.2 1.4 35
2019-08-12 11:00:00 20.8 9 Nordeste 23 Norte 0 941.9 1.7 39
2019-08-12 10:00:00 18.6 7 Norte 22 Nordeste 0 941.6 1.9 42
2019-08-12 09:00:00 17.2 7 Nordeste 18 Nordeste 0 940.8 1.3 46
2019-08-12 08:00:00 16 4 Este 11 Sudeste 0 940.2 0.8 46
2019-08-12 07:00:00 15.1 0 Calma 7 Oeste 0 939.7 0.3 46
2019-08-12 06:00:00 15.9 3 Oeste 5 Oeste 0 939.5 0 42
2019-08-12 05:00:00 16.7 3 Este 11 Este 0 939.4 -0.4 40
2019-08-12 04:00:00 17.4 5 Noroeste 13 Noroeste 0 939.4 -0.5 38
2019-08-12 03:00:00 18.6 4 Oeste 18 Noroeste 0 939.5 0.4 35
2019-08-12 02:00:00 19.7 8 Noroeste 19 Noroeste 0 939.8 0.1 32
2019-08-12 01:00:00 20.5 7 Noroeste 27 Noroeste 0 939.9 1.1 32
2019-08-12 00:00:00 21.3 9 Noroeste 26 Noroeste 0 939.1 0.8 31
2019-08-11 23:00:00 22.1 10 Noroeste 29 Oeste 0 939.7 1.9 31
2019-08-11 22:00:00 23.4 12 Noroeste 28 Oeste 0 938.8 1 31
2019-08-11 21:00:00 24.5 11 Noroeste 32 Oeste 0 938.3 0.2 31
2019-08-11 20:00:00 26.4 12 Oeste 33 Sudoeste 0 937.8 -0.2 31
2019-08-11 19:00:00 27.3 12 Oeste 36 Sudoeste 0 937.8 -0.7 27
2019-08-11 18:00:00 27.8 15 Oeste 38 Sudoeste 0 938.1 -0.8 28
2019-08-11 17:00:00 28 13 Sudoeste 35 Sudoeste 0 938 -1.1 25
2019-08-11 16:00:00 26.7 16 Sudoeste 39 Sudoeste 0 938.5 -0.9 29
2019-08-11 15:00:00 28 15 Sudoeste 41 Sudoeste 0 938.9 -0.7 27
2019-08-11 14:00:00 27.4 11 Sudoeste 36 Oeste 0 939.1 -0.3 30
2019-08-11 13:00:00 28 13 Sudoeste 31 Sudoeste 0 939.4 1.3 32
2019-08-11 12:00:00 26.1 8 Sudoeste 21 Oeste 0 939.6 1 35
2019-08-11 11:00:00 23.8 7 Sudoeste 20 Sudoeste 0 939.4 2.2 37
2019-08-11 10:00:00 22.1 0 Calma 9 Oeste 0 938.1 0.9 41
2019-08-11 09:00:00 20.4 4 Sudoeste 8 Sur 0 938.6 0.8 44
2019-08-11 08:00:00 20.4 4 Sudeste 9 Este 0 937.2 0.2 41
2019-08-11 07:00:00 20.4 5 Noroeste 28 Noroeste 0 937.2 -0.2 41
2019-08-11 06:00:00 19.4 8 Oeste 17 Oeste 0 937.8 -0.4 40
2019-08-11 05:00:00 20.3 8 Oeste 16 Oeste 0 937 -1.4 38
2019-08-11 04:00:00 20.7 7 Oeste 14 Oeste 0 937.4 -1.1 38
2019-08-11 03:00:00 21 5 Oeste 10 Oeste 0 938.2 -0.6 37
2019-08-11 02:00:00 22.2 3 Sudoeste 9 Sudoeste 0 938.4 -0.6 32
2019-08-11 01:00:00 22.8 4 Sudoeste 11 Oeste 0 938.5 -0.6 32
2019-08-11 00:00:00 23.8 5 Oeste 15 Oeste 0 938.8 0 30
2019-08-10 23:00:00 25.1 7 Oeste 17 Oeste 0 939 0.2 29
2019-08-10 22:00:00 26.5 6 Oeste 21 Sudoeste 0 939.1 0 27
2019-08-10 21:00:00 27.9 8 Oeste 21 Oeste 0 938.8 -0.8 27
2019-08-10 20:00:00 29.2 9 Oeste 19 Sudoeste 0 938.8 -1.6 28
2019-08-10 19:00:00 29.9 10 Oeste 34 Sudoeste 0 939.1 -2 27
2019-08-10 18:00:00 30.9 10 Sudoeste 36 Sudoeste 0 939.6 -1.7 25
2019-08-10 17:00:00 30.7 11 Sudoeste 30 Oeste 0 940.4 -1.4 26
2019-08-10 16:00:00 31.2 8 Sudoeste 28 Sudoeste 0 941.1 -1 27
2019-08-10 15:00:00 30.7 9 Sudoeste 22 Sudoeste 0 941.3 -1.3 28
2019-08-10 14:00:00 28.7 5 Sudoeste 21 Sudoeste 0 941.8 -0.5 29
2019-08-10 13:00:00 26.8 9 Oeste 20 Oeste 0 942.1 -0.2 35
2019-08-10 12:00:00 25.6 4 Sur 17 Sudoeste 0 942.6 0.7 42
2019-08-10 11:00:00 23.1 5 Oeste 11 Sur 0 942.3 0.9 48
2019-08-10 10:00:00 20.6 4 Sur 12 Sur 0 942.3 1.4 55
2019-08-10 09:00:00 19.5 3 Sur 8 Sur 0 941.9 1.2 59
2019-08-10 08:00:00 18.4 0 Calma 6 Oeste 0 941.4 0.9 60
2019-08-10 07:00:00 18.8 5 Oeste 10 Oeste 0 940.9 0.5 60
2019-08-10 06:00:00 19 4 Oeste 14 Oeste 0 940.7 0.3 58
2019-08-10 05:00:00 19.9 7 Oeste 19 Oeste 0 940.5 0.5 57
2019-08-10 04:00:00 20.5 6 Oeste 14 Oeste 0 940.4 -0.1 59
2019-08-10 03:00:00 20.9 3 Oeste 14 Sudoeste 0 940.4 -0.4 63
2019-08-10 02:00:00 21.8 8 Oeste 17 Oeste 0 940 -0.5 61
2019-08-10 01:00:00 22.7 8 Oeste 23 Oeste 0 940.5 0.2 57
2019-08-10 00:00:00 23.4 11 Oeste 28 Oeste 0 940.8 1.2 55
2019-08-09 23:00:00 24.1 8 Oeste 31 Oeste 0 940.5 1.5 52
2019-08-09 22:00:00 25 10 Oeste 33 Oeste 0 940.3 1.5 51
2019-08-09 21:00:00 26.4 16 Oeste 36 Oeste 0 939.6 1.1 49
2019-08-09 20:00:00 28.7 19 Oeste 50 Oeste 0 939 0.3 42
2019-08-09 19:00:00 29.7 19 Oeste 49 Oeste 0 938.8 -0.3 40
2019-08-09 18:00:00 30.3 23 Sudoeste 55 Sudoeste 0 938.5 -0.7 39
2019-08-09 17:00:00 30.5 23 Oeste 54 Sudoeste 0 938.7 -1.2 39
2019-08-09 16:00:00 31.2 17 Sudoeste 45 Sudoeste 0 939.1 -0.6 41
2019-08-09 15:00:00 30.7 19 Sudoeste 40 Sudoeste 0 939.2 -0.7 43
2019-08-09 14:00:00 29.5 18 Sudoeste 47 Sudoeste 0 939.9 0.4 46
2019-08-09 13:00:00 28.1 19 Sudoeste 44 Sudoeste 0 939.7 0.8 48
2019-08-09 12:00:00 27 17 Sudoeste 32 Oeste 0 939.9 0.7 51
2019-08-09 11:00:00 25.1 14 Sudoeste 30 Sudoeste 0 939.5 1.1 55
2019-08-09 10:00:00 23.3 11 Sudoeste 30 Oeste 0 938.9 0.8 58
2019-08-09 09:00:00 22.3 13 Sudoeste 29 Sudoeste 0 939.2 1.8 58
2019-08-09 08:00:00 22.1 6 Sudoeste 18 Sudoeste 0 938.4 0.7 57
2019-08-09 07:00:00 22.1 4 Oeste 20 Oeste 0 938.1 0.4 54
2019-08-09 06:00:00 22.5 6 Oeste 19 Sudoeste 0 937.4 0 52
2019-08-09 05:00:00 22.9 4 Sudoeste 12 Sudoeste 0 937.7 0.3 48
2019-08-09 04:00:00 24.2 6 Sudoeste 15 Sur 0 937.7 0.4 44
2019-08-09 03:00:00 24 3 Sur 10 Sur 0 937.4 0.1 44
2019-08-09 02:00:00 25 0 Calma 16 Noroeste 0 937.4 0.2 40
2019-08-09 01:00:00 25.5 7 Noroeste 18 Oeste 0 937.3 0.6 39
2019-08-09 00:00:00 26.4 6 Oeste 17 Oeste 0 937.3 0.9 37
2019-08-08 23:00:00 27.6 9 Oeste 18 Sudoeste 0 937.2 1 36
2019-08-08 22:00:00 28.9 9 Oeste 26 Oeste 0 936.7 0.4 35
2019-08-08 21:00:00 30.1 11 Oeste 33 Sudoeste 0 936.4 -0.1 33
2019-08-08 20:00:00 31.2 13 Oeste 37 Oeste 0 936.2 -0.7 32
2019-08-08 19:00:00 32.1 12 Sudoeste 34 Sudoeste 0 936.3 -1.4 32
2019-08-08 18:00:00 31.7 16 Sudoeste 41 Oeste 0 936.5 -1.5 32
2019-08-08 17:00:00 32 17 Sudoeste 41 Oeste 0 936.9 -1.4 32
2019-08-08 16:00:00 32.8 15 Oeste 33 Sudoeste 0 937.7 -1 32
2019-08-08 15:00:00 31.6 13 Oeste 33 Sudoeste 0 938 -0.7 36
2019-08-08 14:00:00 30.6 11 Sudoeste 28 Sudoeste 0 938.3 -0.4 39
2019-08-08 13:00:00 29.3 8 Sudoeste 21 Sudoeste 0 938.7 0.8 41
2019-08-08 12:00:00 26.7 8 Sudoeste 19 Sudoeste 0 938.7 0.3 45
2019-08-08 11:00:00 24.3 3 Sudoeste 14 Sudeste 0 938.7 0.7 49
2019-08-08 10:00:00 21.9 0 Calma 10 Sudoeste 0 937.9 0.1 54
2019-08-08 09:00:00 20 0 Calma 6 Oeste 0 938.4 1.7 57
2019-08-08 08:00:00 19.3 3 Sudoeste 8 Sudoeste 0 938 0.3 57
2019-08-08 07:00:00 19.4 0 Calma 11 Sudoeste 0 937.8 -0.4 56
2019-08-08 06:00:00 20.1 3 Oeste 17 Oeste 0 936.7 -1.7 53
2019-08-08 05:00:00 20.5 6 Oeste 16 Oeste 0 937.7 -0.9 51
2019-08-08 04:00:00 21.3 7 Oeste 23 Oeste 0 938.2 -0.2 49
2019-08-08 03:00:00 21.4 7 Oeste 24 Oeste 0 938.4 0 47
2019-08-08 02:00:00 21.7 8 Oeste 19 Oeste 0 938.6 0.4 46
2019-08-08 01:00:00 21.9 8 Oeste 24 Oeste 0 938.4 0.9 45
2019-08-08 00:00:00 22.5 7 Oeste 21 Oeste 0 938.4 1.3 43
2019-08-07 23:00:00 23.4 8 Sudoeste 19 Oeste 0 938.2 1.1 42
2019-08-07 22:00:00 24.2 9 Sudoeste 25 Oeste 0 937.5 0.2 42
2019-08-07 21:00:00 25.1 8 Sudoeste 29 Oeste 0 937.1 -0.5 41
2019-08-07 20:00:00 25.5 10 Oeste 28 Sudoeste 0 937.1 -0.4 39
2019-08-07 19:00:00 26.6 9 Sudoeste 25 Oeste 0 937.3 -0.3 39
2019-08-07 18:00:00 26.6 9 Sudoeste 26 Sudoeste 0 937.6 -0.5 40
2019-08-07 17:00:00 25.8 4 Sudoeste 14 Oeste 0 937.5 -0.4 39
2019-08-07 16:00:00 25.3 9 Oeste 24 Sudoeste 0 937.6 0.4 43
2019-08-07 15:00:00 26 10 Oeste 25 Sudoeste 0 938.1 1.2 41
2019-08-07 14:00:00 26.1 6 Sudoeste 23 Sudoeste 0 937.9 1.5 42
2019-08-07 13:00:00 26.1 7 Sudoeste 19 Sudoeste 0 937.2 1.2 42
2019-08-07 12:00:00 25.1 7 Sudoeste 17 Sudoeste 0 936.9 1.6 42
2019-08-07 11:00:00 24.7 8 Sudoeste 21 Oeste 0 936.4 1.4 43
2019-08-07 10:00:00 23.9 11 Oeste 21 Oeste 0 936 1.5 43
2019-08-07 09:00:00 23.5 4 Oeste 14 Sudoeste 0 935.3 1 43
2019-08-07 08:00:00 23.5 4 Oeste 14 Oeste 0 935 0.5 41
2019-08-07 07:00:00 23.9 6 Oeste 15 Sudoeste 0 934.5 0 39
2019-08-07 06:00:00 24.3 5 Sudoeste 14 Sudoeste 0 934.3 -0.2 35
2019-08-07 05:00:00 24.9 8 Oeste 26 Oeste 0 934.5 -0.1 35
2019-08-07 04:00:00 25 8 Oeste 22 Oeste 0 934.5 -0.2 33
2019-08-07 03:00:00 24.6 5 Sudoeste 11 Sudoeste 0 934.5 -0.6 33
2019-08-07 02:00:00 25.8 4 Oeste 18 Oeste 0 934.6 -0.8 30
2019-08-07 01:00:00 26.8 7 Oeste 19 Oeste 0 934.7 0.1 29
2019-08-07 00:00:00 27.9 9 Oeste 23 Oeste 0 935.1 1 28
2019-08-06 23:00:00 28.5 10 Oeste 28 Oeste 0 935.4 1.4 28
2019-08-06 22:00:00 29.5 9 Oeste 24 Sudoeste 0 934.6 0.3 26
2019-08-06 21:00:00 30.7 12 Oeste 31 Sudoeste 0 934.1 -0.5 25
2019-08-06 20:00:00 31.3 10 Oeste 30 Sudoeste 0 934 -1.3 24
2019-08-06 19:00:00 33 13 Oeste 33 Oeste 0 934.3 -1.6 22
2019-08-06 18:00:00 33.2 13 Oeste 32 Sudoeste 0 934.6 -1.9 22
2019-08-06 17:00:00 34.3 12 Sudoeste 33 Oeste 0 935.3 -1.8 20
2019-08-06 16:00:00 34.8 12 Sudoeste 36 Sudoeste 0 935.9 -1.6 19
2019-08-06 15:00:00 34.4 9 Sudoeste 27 Oeste 0 936.5 -1.2 21
2019-08-06 14:00:00 33.5 7 Sudoeste 30 Sudoeste 0 937.1 -0.6 23
2019-08-06 13:00:00 32.7 9 Oeste 26 Oeste 0 937.5 0 25
2019-08-06 12:00:00 30.2 9 Sudoeste 21 Oeste 0 937.7 0.3 28
2019-08-06 11:00:00 27.3 2 Sur 13 Sur 0 937.7 0.6 29
2019-08-06 10:00:00 25 4 Sudeste 7 Sudeste 0 937.5 1.1 31
2019-08-06 09:00:00 22 0 Calma 4 Sudoeste 0 937.4 1 36
2019-08-06 08:00:00 20.9 0 Calma 7 Oeste 0 937.1 0.5 36
2019-08-06 07:00:00 21 4 Noroeste 10 Oeste 0 936.4 0 35
2019-08-06 06:00:00 21.6 3 Oeste 7 Oeste 0 936.4 0 36
2019-08-06 05:00:00 22.9 5 Sudoeste 14 Noroeste 0 936.6 0.1 34
2019-08-06 04:00:00 23.5 6 Noroeste 13 Noroeste 0 936.4 -0.1 32
2019-08-06 03:00:00 24 6 Noroeste 13 Noroeste 0 936.4 0 29
2019-08-06 02:00:00 24.2 7 Oeste 14 Noroeste 0 936.5 0 27
2019-08-06 01:00:00 25.9 5 Oeste 21 Oeste 0 936.5 0.4 25
2019-08-06 00:00:00 26.7 3 Oeste 12 Oeste 0 936.4 0.7 26
2019-08-05 23:00:00 28.4 5 Oeste 18 Oeste 0 936.5 0.9 25
2019-08-05 22:00:00 29.5 9 Oeste 21 Oeste 0 936.1 0.4 23
2019-08-05 21:00:00 31.5 11 Oeste 23 Sudoeste 0 935.7 -0.4 22
2019-08-05 20:00:00 33 8 Sudoeste 24 Oeste 0 935.6 -1.1 22
2019-08-05 19:00:00 33.6 12 Sudoeste 28 Oeste 0 935.7 -1.6 22
2019-08-05 18:00:00 33.4 13 Oeste 29 Oeste 0 936.1 -1.6 25
2019-08-05 17:00:00 33.1 12 Oeste 32 Oeste 0 936.7 -1.6 25
2019-08-05 16:00:00 35.6 8 Oeste 30 Oeste 0 937.3 -1.3 21
2019-08-05 15:00:00 35.3 11 Sur 28 Sur 0 937.7 -1.2 22
2019-08-05 14:00:00 34.4 9 Sudoeste 26 Sudoeste 0 938.3 -0.6 24
2019-08-05 13:00:00 32.7 6 Sudoeste 19 Sudoeste 0 938.6 -0.2 27
2019-08-05 12:00:00 30.6 4 Sudeste 14 Sudeste 0 938.9 0.4 29
2019-08-05 11:00:00 27.6 3 Sur 7 Sudeste 0 938.9 0.2 32
2019-08-05 10:00:00 24.5 0 Calma 5 Este 0 938.8 0.7 36
2019-08-05 09:00:00 22 0 Calma 6 Sudeste 0 938.5 1 40
2019-08-05 08:00:00 21.5 3 Sudeste 13 Este 0 938.7 1.2 36
2019-08-05 07:00:00 21.7 4 Este 11 Noroeste 0 938.1 0.6 38
2019-08-05 06:00:00 21.6 0 Calma 9 Oeste 0 937.5 -0.1 37
2019-08-05 05:00:00 22.8 4 Oeste 13 Noroeste 0 937.5 -0.2 35
2019-08-05 04:00:00 23.2 4 Oeste 11 Noroeste 0 937.5 -0.1 35
2019-08-05 03:00:00 24 6 Noroeste 16 Noroeste 0 937.6 0 33
2019-08-05 02:00:00 25.2 5 Oeste 22 Oeste 0 937.7 -0.1 32
2019-08-05 01:00:00 26.6 6 Oeste 17 Oeste 0 937.6 0.2 29
2019-08-05 00:00:00 27.6 5 Oeste 15 Oeste 0 937.6 0.9 28
2019-08-04 23:00:00 28.5 7 Oeste 22 Oeste 0 937.8 1.1 26
2019-08-04 22:00:00 29.4 7 Oeste 22 Oeste 0 937.4 0.8 25
2019-08-04 21:00:00 31.3 10 Sudoeste 22 Oeste 0 936.7 -0.1 22
2019-08-04 20:00:00 32.6 9 Oeste 26 Sudoeste 0 936.7 -0.4 21
2019-08-04 19:00:00 33.2 10 Oeste 24 Sudoeste 0 936.6 -1.2 21
2019-08-04 18:00:00 33.5 13 Sudoeste 32 Sudoeste 0 936.8 -1.2 23
2019-08-04 17:00:00 32.7 12 Sudoeste 29 Oeste 0 937.1 -1.4 25
2019-08-04 16:00:00 35.6 10 Sudoeste 31 Oeste 0 937.8 -1.1 21
2019-08-04 15:00:00 34.8 12 Oeste 27 Oeste 0 938 -0.8 21
2019-08-04 14:00:00 34 8 Sudoeste 26 Sudoeste 0 938.5 -0.3 23
2019-08-04 13:00:00 32.8 10 Sudoeste 31 Sudoeste 0 938.9 0.4 25
2019-08-04 12:00:00 30.5 2 Sudoeste 13 Sur 0 938.8 0.6 29
2019-08-04 11:00:00 27 3 Oeste 8 Sudoeste 0 938.8 0.9 32
2019-08-04 10:00:00 24.4 0 Calma 6 Sudeste 0 938.5 1.1 33
2019-08-04 09:00:00 22.2 0 Calma 8 Este 0 938.2 1.2 35
2019-08-04 08:00:00 21.4 0 Calma 7 Este 0 937.9 1 34
2019-08-04 07:00:00 21.7 0 Calma 5 Sudeste 0 937.4 0.8 35
2019-08-04 06:00:00 22.9 3 Sur 10 Sudeste 0 937 0.5 34
2019-08-04 05:00:00 24.3 6 Sudeste 14 Oeste 0 936.9 0.4 31
2019-08-04 04:00:00 24.4 8 Noroeste 17 Oeste 0 936.6 -0.1 31
2019-08-04 03:00:00 24.2 7 Noroeste 15 Oeste 0 936.5 0.1 28
2019-08-04 02:00:00 24.8 9 Oeste 18 Oeste 0 936.5 -0.1 28
2019-08-04 01:00:00 26.3 4 Oeste 19 Oeste 0 936.7 0.5 26
2019-08-04 00:00:00 27.4 12 Oeste 20 Oeste 0 936.4 0.7 25
2019-08-03 23:00:00 27.8 9 Oeste 17 Oeste 0 936.6 0.9 24
2019-08-03 22:00:00 29.1 7 Oeste 15 Oeste 0 936.2 0.2 21
2019-08-03 21:00:00 31.6 8 Oeste 24 Oeste 0 935.7 -0.7 19
2019-08-03 20:00:00 33.4 10 Oeste 26 Oeste 0 935.7 -1.3 18
2019-08-03 19:00:00 34.5 12 Sudoeste 35 Sudoeste 0 936 -1.6 17
2019-08-03 18:00:00 35.1 8 Sudoeste 38 Oeste 0 936.4 -1.6 17
2019-08-03 17:00:00 35.5 10 Sudoeste 33 Oeste 0 937 -1.3 17
2019-08-03 16:00:00 35.2 13 Sudoeste 30 Sudoeste 0 937.6 -1.1 18
2019-08-03 15:00:00 35.2 9 Sur 24 Sur 0 938 -0.9 21
2019-08-03 14:00:00 33.5 4 Sur 19 Sudeste 0 938.3 -0.6 26
2019-08-03 13:00:00 32 7 Sudeste 17 Este 0 938.7 0 30
2019-08-03 12:00:00 28.9 4 Sudeste 12 Este 0 938.9 0.2 34
2019-08-03 11:00:00 26.7 5 Sudeste 12 Sudeste 0 938.9 0.4 39
2019-08-03 10:00:00 24.7 5 Este 14 Este 0 938.7 0.7 42
2019-08-03 09:00:00 23.4 5 Este 12 Este 0 938.7 1.2 41
2019-08-03 08:00:00 22.1 6 Nordeste 12 Nordeste 0 938.5 1.1 44
2019-08-03 07:00:00 22.3 4 Este 11 Sudeste 0 938 0.7 42
2019-08-03 06:00:00 22.9 5 Nordeste 13 Este 0 937.5 0.3 36
2019-08-03 05:00:00 23.7 6 Este 20 Nordeste 0 937.4 0.2 33
2019-08-03 04:00:00 24.4 11 Nordeste 21 Nordeste 0 937.3 0.1 31
2019-08-03 03:00:00 25 9 Nordeste 24 Nordeste 0 937.2 -0.1 28
2019-08-03 02:00:00 24.6 4 Norte 7 Norte 0 937.2 -0.2 26
2019-08-03 01:00:00 24.8 5 Noroeste 9 Oeste 0 937.2 0.2 25
2019-08-03 00:00:00 26.2 5 Oeste 15 Oeste 0 937.3 0.5 25
2019-08-02 23:00:00 27 8 Oeste 13 Oeste 0 937.4 0.5 24
2019-08-02 22:00:00 28.2 4 Oeste 15 Sudoeste 0 937 0 22
2019-08-02 21:00:00 30.9 5 Sudoeste 18 Oeste 0 936.8 -0.6 19
2019-08-02 20:00:00 33 8 Sudoeste 20 Sur 0 936.9 -0.9 18
2019-08-02 19:00:00 33.7 7 Sudoeste 24 Sur 0 937 -1.2 18
2019-08-02 18:00:00 34.4 7 Oeste 22 Sudoeste 0 937.4 -1.2 19
2019-08-02 17:00:00 34.6 4 Sur 20 Oeste 0 937.8 -1 20
2019-08-02 16:00:00 33.7 6 Oeste 20 Sudoeste 0 938.2 -0.8 22
2019-08-02 15:00:00 34.8 6 Sudoeste 22 Noroeste 0 938.6 -0.5 24
2019-08-02 14:00:00 33.6 3 Noroeste 13 Sudeste 0 938.8 -0.1 26
2019-08-02 13:00:00 32.2 5 Sudeste 14 Sudeste 0 939 0.1 32
2019-08-02 12:00:00 29.7 5 Este 14 Este 0 939.1 0.7 37
2019-08-02 11:00:00 26.5 4 Nordeste 14 Este 0 938.9 0.9 42
2019-08-02 10:00:00 24.5 8 Este 20 Nordeste 0 938.9 1.3 46
2019-08-02 09:00:00 23 8 Nordeste 23 Norte 0 938.4 1.2 47
2019-08-02 08:00:00 22.5 11 Nordeste 23 Nordeste 0 938 0.6 47
2019-08-02 07:00:00 22.9 13 Nordeste 30 Nordeste 0 937.6 0.4 46
2019-08-02 06:00:00 23.3 10 Nordeste 27 Nordeste 0 937.2 0.2 45
2019-08-02 05:00:00 23.5 6 Nordeste 22 Nordeste 0 937.4 0.2 43
2019-08-02 04:00:00 24.5 12 Nordeste 26 Nordeste 0 937.2 0.2 39
2019-08-02 03:00:00 24.9 8 Nordeste 18 Nordeste 0 937 0.2 33
2019-08-02 02:00:00 23.9 0 Calma 9 Este 0 937.2 0.5 31
2019-08-02 01:00:00 25.4 3 Este 12 Norte 0 937 0.9 29
2019-08-02 00:00:00 25.9 5 Oeste 10 Noroeste 0 936.8 1.3 29
2019-08-01 23:00:00 27.6 5 Noroeste 25 Oeste 0 936.7 1.5 25
2019-08-01 22:00:00 29 9 Oeste 24 Oeste 0 936.1 1.2 24
2019-08-01 21:00:00 30.8 10 Sudoeste 24 Sudoeste 0 935.5 0.1 22
2019-08-01 20:00:00 31.5 10 Sudoeste 27 Oeste 0 935.2 -0.3 22
2019-08-01 19:00:00 32.5 9 Sudoeste 30 Sudoeste 0 934.9 -1.1 22
2019-08-01 18:00:00 32.4 14 Sudoeste 33 Oeste 0 935.4 -1.1 22
2019-08-01 17:00:00 31.7 11 Sudoeste 33 Sudoeste 0 935.5 -1.3 26
2019-08-01 16:00:00 33.8 11 Sudoeste 36 Oeste 0 936 -1.1 25
2019-08-01 15:00:00 33 11 Sudoeste 26 Oeste 0 936.5 -0.6 28
2019-08-01 14:00:00 31.2 5 Sudoeste 21 Sur 0 936.8 0 32
2019-08-01 13:00:00 29.2 2 Sudeste 15 Sudeste 0 937.1 0.3 39
2019-08-01 12:00:00 26.5 5 Sur 14 Este 0 937.1 0.2 43
2019-08-01 11:00:00 24.3 5 Este 15 Este 0 936.8 0.3 47
2019-08-01 10:00:00 22.2 3 Sudeste 15 Este 0 936.8 0.6 50
2019-08-01 09:00:00 21.4 6 Este 14 Sudeste 0 936.9 0.8 51
2019-08-01 08:00:00 21.1 6 Este 14 Sudeste 0 936.5 0.4 51
2019-08-01 07:00:00 21.4 6 Sudeste 21 Sudeste 0 936.2 0 51
2019-08-01 06:00:00 21.9 10 Sudeste 24 Sudeste 0 936.1 -0.4 49
2019-08-01 05:00:00 22.3 8 Este 21 Sudeste 0 936.1 -0.5 48
2019-08-01 04:00:00 23.1 5 Sudeste 25 Sudeste 0 936.2 -0.2 47
2019-08-01 03:00:00 23.8 9 Sudeste 24 Sudeste 0 936.5 0.2 46
2019-08-01 02:00:00 24.7 11 Sudeste 25 Sudeste 0 936.6 0.7 46
2019-08-01 01:00:00 25.6 10 Sudeste 32 Sudeste 0 936.4 1.1 45
2019-08-01 00:00:00 26.5 15 Sudeste 32 Sur 0 936.3 1.4 42
2019-07-31 23:00:00 27.3 16 Sudeste 36 Sudeste 0 935.9 1.1 40
2019-07-31 22:00:00 28.8 14 Sudeste 37 Sudeste 0 935.3 0.2 38
2019-07-31 21:00:00 30.4 19 Sudeste 37 Sudeste 0 934.9 -0.7 34
2019-07-31 20:00:00 31.9 7 Sudeste 15 Sudeste 0 934.8 -1.3 28
2019-07-31 19:00:00 32.5 2 Sur 26 Sudeste 0 935.1 -1.9 28
2019-07-31 18:00:00 32.9 7 Sur 23 Sudoeste 0 935.6 -2.1 27
2019-07-31 17:00:00 33.2 7 Sudoeste 22 Sur 0 936.1 -2.2 28
2019-07-31 16:00:00 32.9 10 Sudeste 25 Sur 0 937 -1.8 29
2019-07-31 15:00:00 31.8 5 Sur 23 Sur 0 937.7 -1.5 32
2019-07-31 14:00:00 30 5 Sudeste 22 Sudeste 0 938.3 -1.2 36
2019-07-31 13:00:00 27.8 4 Nordeste 19 Este 0 938.8 -0.1 38
2019-07-31 12:00:00 26.2 7 Este 21 Sudeste 0 939.2 0.2 40
2019-07-31 11:00:00 23.5 6 Este 26 Nordeste 0 939.5 0.6 41
2019-07-31 10:00:00 21.2 12 Nordeste 29 Nordeste 0 938.9 -0.4 42
2019-07-31 09:00:00 19.4 13 Nordeste 28 Nordeste 0 939 -0.1 43
2019-07-31 08:00:00 18.6 14 Nordeste 30 Nordeste 0 938.9 0.2 43
2019-07-31 07:00:00 18.2 13 Nordeste 30 Nordeste 0 939.3 0.6 43
2019-07-31 06:00:00 18.1 11 Nordeste 31 Nordeste 0 939.1 0.4 43
2019-07-31 05:00:00 18.4 16 Nordeste 33 Nordeste 0 938.7 0.2 41
2019-07-31 04:00:00 18.8 16 Nordeste 37 Nordeste 0 938.7 -0.2 40
2019-07-31 03:00:00 19.3 22 Nordeste 43 Nordeste 0 938.7 0.6 38
2019-07-31 02:00:00 20.4 23 Nordeste 48 Nordeste 0 938.5 0.5 36
2019-07-31 01:00:00 22.1 22 Nordeste 43 Nordeste 0 938.9 1.8 33
2019-07-31 00:00:00 23.9 17 Nordeste 39 Nordeste 0 938.1 1.2 28
2019-07-30 23:00:00 25.5 12 Nordeste 28 Nordeste 0 938 1 25
2019-07-30 22:00:00 25.6 3 Este 9 Este 0 937.1 0 24
2019-07-30 21:00:00 26.9 2 Este 11 Este 0 936.9 -0.7 24
2019-07-30 20:00:00 28.8 0 Calma 13 Oeste 0 937 -1.1 21
2019-07-30 19:00:00 29.4 5 Sudeste 12 Sur 0 937.1 -1.5 21
2019-07-30 18:00:00 29.7 5 Sudeste 17 Sudeste 0 937.6 -1.4 23
2019-07-30 17:00:00 29.2 3 Norte 15 Sudeste 0 938.1 -1.5 23
2019-07-30 16:00:00 30.8 4 Sudeste 16 Sur 0 938.6 -1.2 22
2019-07-30 15:00:00 29.3 3 Noroeste 11 Este 0 939 -1 25
2019-07-30 14:00:00 27.9 3 Norte 15 Sudeste 0 939.6 0 26
2019-07-30 13:00:00 26.6 6 Sudeste 15 Nordeste 0 939.8 0.1 29
2019-07-30 12:00:00 25 7 Este 22 Nordeste 0 940 0.7 31
2019-07-30 11:00:00 22.4 11 Nordeste 24 Nordeste 0 939.6 1.1 34
2019-07-30 10:00:00 20.2 10 Nordeste 25 Nordeste 0 939.7 1.6 35
2019-07-30 09:00:00 18.9 6 Nordeste 19 Este 0 939.3 1.5 38
2019-07-30 08:00:00 17.7 4 Este 14 Este 0 938.5 1 39
2019-07-30 07:00:00 17.1 5 Este 11 Este 0 938.1 1.6 39
2019-07-30 06:00:00 17.2 2 Noroeste 10 Oeste 0 937.8 0.5 39
2019-07-30 05:00:00 18.2 4 Oeste 10 Noroeste 0 937.5 0.5 37
2019-07-30 04:00:00 19.7 6 Noroeste 15 Oeste 0 936.5 -0.2 34
2019-07-30 03:00:00 20.6 6 Noroeste 21 Oeste 0 937.3 0.6 32
2019-07-30 02:00:00 21.6 8 Noroeste 22 Noroeste 0 937 0.9 31
2019-07-30 01:00:00 22.7 8 Noroeste 24 Oeste 0 936.7 1.5 29
2019-07-30 00:00:00 23.6 10 Noroeste 27 Noroeste 0 936.7 2 28
2019-07-29 23:00:00 24.9 13 Noroeste 29 Noroeste 0 936.1 2 27
2019-07-29 22:00:00 26.3 10 Noroeste 31 Noroeste 0 935.2 1.2 27
2019-07-29 21:00:00 27.7 14 Noroeste 35 Oeste 0 934.7 0.7 27
2019-07-29 20:00:00 29.3 12 Noroeste 41 Oeste 0 934.1 -0.4 27
2019-07-29 19:00:00 30.6 19 Sudoeste 43 Oeste 0 934 -0.8 25
2019-07-29 18:00:00 31 14 Sudoeste 41 Sudoeste 0 934 -1 23
2019-07-29 17:00:00 30.1 15 Sudoeste 35 Sudoeste 0 934.5 -0.9 24
2019-07-29 16:00:00 32.7 14 Sudoeste 35 Oeste 0 934.8 -0.6 20
2019-07-29 15:00:00 32 14 Sudoeste 35 Oeste 0 935 -0.6 24
2019-07-29 14:00:00 31.3 12 Oeste 31 Sudoeste 0 935.4 0.1 28
2019-07-29 13:00:00 29.9 13 Oeste 31 Sudoeste 0 935.4 0.2 29
2019-07-29 12:00:00 27.8 5 Sudoeste 14 Oeste 0 935.6 0.6 29
2019-07-29 11:00:00 25.2 4 Sur 9 Sudeste 0 935.3 0.7 31
2019-07-29 10:00:00 22.7 2 Sudeste 7 Este 0 935.2 0.9 32
2019-07-29 09:00:00 20.3 0 Calma 11 Este 0 935 1.3 37
2019-07-29 08:00:00 19.8 4 Este 9 Este 0 934.6 0.8 35
2019-07-29 07:00:00 19.7 4 Este 9 Este 0 934.3 0.6 35
2019-07-29 06:00:00 20.5 3 Nordeste 8 Nordeste 0 933.7 -0.2 33
2019-07-29 05:00:00 20.5 4 Sudeste 6 Sudeste 0 933.8 0 38
2019-07-29 04:00:00 20.9 0 Calma 6 Nordeste 0 933.7 -0.2 36
2019-07-29 03:00:00 21.8 4 Nordeste 10 Norte 0 933.9 0 33
2019-07-29 02:00:00 22.9 6 Noroeste 15 Noroeste 0 933.8 -0.1 34
2019-07-29 01:00:00 23.8 3 Oeste 17 Sudoeste 0 933.9 0.3 35
2019-07-29 00:00:00 24.6 7 Sudoeste 22 Sudoeste 0 933.9 0.6 35
2019-07-28 23:00:00 25.3 5 Sudoeste 15 Sudoeste 0 933.9 0.9 33
2019-07-28 22:00:00 26.2 5 Sudoeste 15 Sudoeste 0 933.6 0.6 32
2019-07-28 21:00:00 27.2 5 Sudoeste 19 Oeste 0 933.3 0.1 31
2019-07-28 20:00:00 27.9 6 Sudoeste 19 Sur 0 933 -0.8 31
2019-07-28 19:00:00 28.4 7 Sudoeste 22 Sur 0 933 -1.2 30
2019-07-28 18:00:00 27.7 9 Sudoeste 23 Oeste 0 933.2 -1.6 32
2019-07-28 17:00:00 28.6 6 Sudoeste 22 Oeste 0 933.8 -1.4 30
2019-07-28 16:00:00 29 3 Sudoeste 22 Este 0 934.2 -1.5 29
2019-07-28 15:00:00 28.1 3 Sudeste 17 Sudoeste 0 934.8 -1.1 32
2019-07-28 14:00:00 27.2 0 Calma 15 Oeste 0 935.2 -0.5 33
2019-07-28 13:00:00 25.6 2 Oeste 15 Nordeste 0 935.7 -0.6 35
2019-07-28 12:00:00 23.4 4 Sudeste 17 Norte 0 935.9 -0.1 39
2019-07-28 11:00:00 20.5 4 Este 14 Este 0 935.7 0 44
2019-07-28 10:00:00 18.3 5 Este 18 Este 0 936.3 0.9 48
2019-07-28 09:00:00 16.8 9 Este 18 Este 0 936 0.8 50
2019-07-28 08:00:00 15.9 7 Este 19 Nordeste 0 935.7 0.7 51
2019-07-28 07:00:00 16.2 6 Este 17 Este 0 935.4 0.7 51
2019-07-28 06:00:00 16.6 8 Este 22 Este 0 935.2 0.1 50
2019-07-28 05:00:00 17.2 8 Este 30 Norte 0 935 0.5 48
2019-07-28 04:00:00 18 12 Nordeste 25 Norte 0 934.7 0.1 48
2019-07-28 03:00:00 19.3 10 Nordeste 23 Nordeste 0 935.1 1 46
2019-07-28 02:00:00 19.9 8 Nordeste 22 Nordeste 0 934.5 0.7 46
2019-07-28 01:00:00 20.4 8 Este 20 Nordeste 0 934.6 1.6 44
2019-07-28 00:00:00 21.9 8 Nordeste 20 Norte 0 934.1 1.7 38
2019-07-27 23:00:00 22.6 7 Noroeste 27 Noroeste 0 933.8 2.1 36
2019-07-26 12:00:00 27.4 12 Sudoeste 28 Sudoeste 0 935.6 0.1 41
2019-07-26 11:00:00 25.9 10 Oeste 26 Oeste 0 935.6 0.4 45
2019-07-26 10:00:00 24.3 11 Oeste 24 Oeste 0 935.7 0.5 48
2019-07-26 09:00:00 23.2 8 Oeste 19 Oeste 0 935.5 0.6 49
2019-07-26 08:00:00 23.2 10 Oeste 24 Oeste 0 935.2 -0.3 45
2019-07-26 07:00:00 23.7 9 Oeste 26 Sudoeste 0 935.2 -0.6 43
2019-07-26 06:00:00 24 4 Oeste 20 Oeste 0 934.9 -0.4 38
2019-07-26 05:00:00 24.8 7 Noroeste 22 Oeste 0 935.5 -0.4 35
2019-07-26 04:00:00 25.5 7 Oeste 22 Sudoeste 0 935.8 0.2 32
2019-07-26 03:00:00 25.7 4 Sudoeste 9 Sudoeste 0 935.3 -0.6 30
2019-07-26 02:00:00 26 4 Sudoeste 10 Sudoeste 0 935.9 -0.1 29
2019-07-26 01:00:00 26.1 3 Sudoeste 9 Sudoeste 0 935.6 -0.2 29
2019-07-26 00:00:00 27.2 5 Oeste 14 Sudoeste 0 935.9 0.5 28
2019-07-25 23:00:00 28.4 5 Oeste 18 Oeste 0 936 0.9 26
2019-07-25 22:00:00 29.5 9 Oeste 27 Oeste 0 935.8 0.6 25
2019-07-25 21:00:00 30.9 12 Oeste 33 Oeste 0 935.4 -0.2 25
2019-07-25 20:00:00 32.4 16 Oeste 32 Oeste 0 935.1 -1 24
2019-07-25 19:00:00 33.6 13 Sudoeste 36 Sudoeste 0 935.2 -1.5 22
2019-07-25 18:00:00 33.1 14 Oeste 41 Oeste 0 935.6 -1.7 24
2019-07-25 17:00:00 33.7 8 Sudoeste 31 Sudoeste 0 936.1 -1.8 25
2019-07-25 16:00:00 35.6 8 Sur 35 Oeste 0 936.7 -1.6 21
2019-07-25 15:00:00 35.3 11 Sudoeste 36 Sudoeste 0 937.3 -1.2 23
2019-07-25 14:00:00 34.6 11 Oeste 27 Sudoeste 0 937.9 -0.7 24
2019-07-25 13:00:00 33.6 3 Sudoeste 14 Sudoeste 0 938.3 0 25
2019-07-25 12:00:00 30.7 4 Sur 13 Oeste 0 938.5 0.5 28
2019-07-25 11:00:00 28.6 0 Calma 9 Nordeste 0 938.6 1 30
2019-07-25 10:00:00 26.5 3 Este 8 Sudeste 0 938.3 1.2 32
2019-07-25 09:00:00 24.8 2 Este 11 Este 0 938 1.1 34
2019-07-25 08:00:00 24 6 Este 13 Este 0 937.6 0.6 33
2019-07-25 07:00:00 24.5 5 Sudeste 14 Este 0 937.1 -0.2 32
2019-07-25 06:00:00 24.8 7 Este 12 Nordeste 0 936.9 -0.3 31
2019-07-25 05:00:00 25 0 Calma 9 Oeste 0 937 -0.3 31
2019-07-25 04:00:00 26.1 4 Norte 14 Sudeste 0 937.3 0 29
2019-07-25 03:00:00 27.2 6 Sur 18 Sur 0 937.2 0.1 26
2019-07-25 02:00:00 28.3 6 Sur 24 Sur 0 937.3 0.2 25
2019-07-25 01:00:00 29.6 12 Sudeste 29 Sudeste 0 937.3 1.2 24
2019-07-25 00:00:00 30.8 13 Sudeste 27 Sudeste 0 937.1 1 22
2019-07-24 23:00:00 32.4 12 Sur 27 Sur 0 937.1 1 22
2019-07-24 22:00:00 31.6 4 Sur 15 Sudoeste 0 936.1 -0.4 23
2019-07-24 21:00:00 33 7 Sur 21 Sur 0 936.1 -0.9 22
2019-07-24 20:00:00 34.6 6 Sur 21 Sur 0 936.1 -1.5 21
2019-07-24 19:00:00 35.4 6 Sudoeste 29 Sudoeste 0 936.5 -1.6 21
2019-07-24 18:00:00 35.8 5 Sudoeste 28 Sudoeste 0 937 -1.8 20
2019-07-24 17:00:00 36 9 Sudoeste 26 Sudeste 0 937.6 -1.9 22
2019-07-24 16:00:00 36.3 6 Sur 28 Sudoeste 0 938.1 -1.7 23
2019-07-24 15:00:00 36.2 7 Sudeste 24 Sur 0 938.8 -1.3 25
2019-07-24 14:00:00 34.9 9 Sudeste 21 Sudeste 0 939.5 -0.6 25
2019-07-24 13:00:00 32.9 6 Sur 19 Este 0 939.8 -0.3 25
2019-07-24 12:00:00 31.3 7 Este 19 Sudeste 0 940.1 0.1 28
2019-07-24 11:00:00 28.8 7 Este 17 Este 0 940.1 0.1 31
2019-07-24 10:00:00 26.4 5 Nordeste 17 Nordeste 0 940.1 0.4 36
2019-07-24 09:00:00 24.8 6 Nordeste 15 Este 0 940 0.3 38
2019-07-24 08:00:00 23.2 6 Nordeste 14 Nordeste 0 940 0.6 41
2019-07-24 07:00:00 22.7 4 Nordeste 10 Nordeste 0 939.7 0.8 41
2019-07-24 06:00:00 22.3 5 Norte 12 Norte 0 939.7 0 44
2019-07-24 05:00:00 23.6 0 Calma 10 Nordeste 0 939.4 -1.1 41
2019-07-24 04:00:00 23.9 0 Calma 8 Noroeste 0 938.9 -1.1 39
2019-07-24 03:00:00 24.5 0 Calma 10 Este 0 939.7 -0.7 39
2019-07-24 02:00:00 26.3 6 Sudeste 32 Sudeste 0 940.5 -1.6 35
2019-07-24 01:00:00 27.1 7 Sudeste 24 Sudeste 0 940 -1.1 33
2019-07-24 00:00:00 26.2 9 Este 45 Sudoeste 0 940.4 0.4 38
2019-07-23 23:00:00 26.7 14 Sudoeste 35 Sudoeste 0 942.1 2 36
2019-07-23 22:00:00 25.8 7 Oeste 19 Sur 0.1 941.1 3.8 46
2019-07-23 21:00:00 25.1 5 Oeste 37 Sur 0.2 940 2.1 50
2019-07-23 20:00:00 27.1 18 Sudoeste 52 Sudoeste 0.8 940.1 1.3 36
2019-07-23 19:00:00 35.5 5 Sur 24 Sudeste 0 937.3 -2.2 18
2019-07-23 18:00:00 36.2 10 Sur 23 Sur 0 937.9 -2 19
2019-07-23 17:00:00 34.9 7 Sudoeste 26 Sudeste 0 938.8 -1.9 20
2019-07-23 16:00:00 37.3 9 Sudeste 24 Sur 0 939.5 -1.9 17
2019-07-23 15:00:00 36.5 8 Sudeste 22 Sudeste 0 939.9 -1.8 18
2019-07-23 14:00:00 34.8 10 Sudeste 21 Sudeste 0 940.7 -1.3 19
2019-07-23 13:00:00 33 2 Nordeste 24 Este 0 941.4 -0.6 21
2019-07-23 12:00:00 30 5 Nordeste 15 Nordeste 0 941.7 -0.1 25
2019-07-23 11:00:00 28.4 0 Calma 15 Sudeste 0 942 0 25
2019-07-23 10:00:00 26.9 5 Este 15 Sudeste 0 942 0 27
2019-07-23 09:00:00 25.7 8 Este 21 Este 0 941.8 -0.7 28
2019-07-23 08:00:00 25.2 6 Sudeste 11 Este 0 942 0.2 28
2019-07-23 07:00:00 25 5 Este 13 Este 0 942 0.2 27
2019-07-23 06:00:00 25.4 2 Este 19 Sudeste 0 942.5 0.4 26
2019-07-23 05:00:00 26.5 9 Este 21 Este 0 941.8 -0.2 25
2019-07-23 04:00:00 27 6 Sudeste 21 Sudeste 0 941.8 -0.1 26
2019-07-23 03:00:00 27.7 9 Sudeste 22 Este 0 942.1 0.4 25
2019-07-23 02:00:00 28 6 Este 21 Sudeste 0 942 0.4 25
2019-07-23 01:00:00 29.2 9 Sudeste 33 Sudeste 0 941.9 1 25
2019-07-23 00:00:00 30.1 17 Sudeste 31 Sur 0 941.7 1.5 23
2019-07-22 23:00:00 32 13 Sudeste 38 Sudeste 0 941.6 1.3 17
2019-07-22 22:00:00 33.1 17 Sudeste 35 Sudeste 0 940.9 0.5 18
2019-07-22 21:00:00 34.5 16 Sudeste 34 Sudeste 0 940.2 -0.8 19
2019-07-22 20:00:00 35.2 17 Sudeste 34 Sudeste 0 940.3 -1.3 19
2019-07-22 19:00:00 36.2 13 Sudeste 35 Sudeste 0 940.4 -2 19
2019-07-22 18:00:00 36.4 10 Sur 33 Sudeste 0 941 -2 19
2019-07-22 17:00:00 36.1 11 Sudeste 30 Sudeste 0 941.6 -1.9 19
2019-07-22 16:00:00 36.8 13 Sudeste 27 Sudeste 0 942.4 -1.9 18
2019-07-22 15:00:00 35.8 4 Este 23 Este 0 943 -1.5 20
2019-07-22 14:00:00 34.2 9 Este 24 Este 0 943.5 -1.1 22
2019-07-22 13:00:00 32.1 8 Sudeste 21 Sudeste 0 944.3 0.4 23
2019-07-22 12:00:00 30.9 10 Este 24 Este 0 944.5 0.2 25
2019-07-22 11:00:00 28.3 6 Sudeste 20 Sudeste 0 944.6 0.7 27
2019-07-22 10:00:00 26.7 8 Este 18 Este 0 943.9 0.2 29
2019-07-22 09:00:00 24.9 8 Este 16 Este 0 944.3 0.6 32
2019-07-22 08:00:00 23.9 9 Este 17 Este 0 943.9 0.8 32
2019-07-22 07:00:00 24.1 6 Este 17 Este 0 943.7 0.5 33
2019-07-22 06:00:00 24.1 4 Este 15 Este 0 943.7 -0.8 35
2019-07-22 05:00:00 24.6 5 Este 19 Nordeste 0 943.1 -1.2 35
2019-07-22 04:00:00 25 6 Nordeste 26 Sudeste 0 943.2 -0.4 36
2019-07-22 03:00:00 26 11 Este 21 Este 0 944.5 1.6 35
2019-07-22 02:00:00 26.9 8 Sudeste 28 Sudeste 0 944.3 2.6 35
2019-07-22 01:00:00 27.8 12 Sudeste 33 Sur 0 943.6 2.7 35
2019-07-22 00:00:00 28.6 13 Sudeste 29 Sur 0 942.9 1.8 37